createdAt,value
2023-04-16T00:00:11.725Z,428.00
2023-04-16T00:01:12.424Z,434.90
2023-04-16T00:02:13.298Z,417.70
2023-04-16T00:03:14.262Z,416.80
2023-04-16T00:04:42.446Z,420.50
2023-04-16T00:05:15.232Z,429.70
2023-04-16T00:06:15.942Z,437.10
2023-04-16T00:07:16.636Z,450.90
2023-04-16T00:08:17.351Z,430.40
2023-04-16T00:09:18.068Z,424.70
2023-04-16T00:10:18.753Z,428.80
2023-04-16T00:11:19.456Z,442.30
2023-04-16T00:12:20.157Z,447.90
2023-04-16T00:13:20.868Z,429.40
2023-04-16T00:14:21.618Z,433.20
2023-04-16T00:15:22.284Z,431.80
2023-04-16T00:16:23.072Z,436.40
2023-04-16T00:17:23.853Z,437.80
2023-04-16T00:18:24.555Z,429.70
2023-04-16T00:19:25.252Z,427.00
2023-04-16T00:20:25.953Z,432.30
2023-04-16T00:21:26.676Z,431.40
2023-04-16T00:22:27.359Z,427.00
2023-04-16T00:23:28.354Z,443.50
2023-04-16T00:24:28.570Z,434.80
2023-04-16T00:25:29.257Z,435.40
2023-04-16T00:26:29.956Z,443.80
2023-04-16T00:27:51.683Z,455.20
2023-04-16T00:28:31.383Z,431.00
2023-04-16T00:29:32.138Z,446.00
2023-04-16T00:30:32.785Z,458.70
2023-04-16T00:31:33.490Z,431.80
2023-04-16T00:32:34.207Z,435.40
2023-04-16T00:33:35.355Z,447.50
2023-04-16T00:34:35.554Z,436.60
2023-04-16T00:35:36.264Z,439.00
2023-04-16T00:36:36.954Z,448.20
2023-04-16T00:37:37.657Z,438.80
2023-04-16T00:38:38.856Z,435.30
2023-04-16T00:39:39.061Z,441.60
2023-04-16T00:40:39.773Z,442.60
2023-04-16T00:41:40.468Z,432.40
2023-04-16T00:42:41.173Z,450.20
2023-04-16T00:43:42.358Z,453.20
2023-04-16T00:44:42.621Z,445.00
2023-04-16T00:45:43.255Z,456.20
2023-04-16T00:46:44.110Z,436.50
2023-04-16T00:47:44.890Z,449.80
2023-04-16T00:48:45.858Z,439.00
2023-04-16T00:49:46.561Z,445.90
2023-04-16T00:50:47.257Z,455.10
2023-04-16T00:51:47.964Z,431.90
2023-04-16T00:52:48.678Z,455.50
2023-04-16T00:54:10.854Z,451.40
2023-04-16T00:54:50.059Z,435.00
2023-04-16T00:55:50.759Z,439.50
2023-04-16T00:56:51.462Z,463.20
2023-04-16T00:57:52.166Z,467.50
2023-04-16T00:58:52.864Z,465.20
2023-04-16T00:59:53.900Z,455.40
2023-04-16T01:00:54.542Z,432.40
2023-04-16T01:01:55.319Z,460.80
2023-04-16T01:02:56.141Z,452.00
2023-04-16T01:03:57.049Z,450.60
2023-04-16T01:04:57.857Z,460.20
2023-04-16T01:05:58.560Z,448.90
2023-04-16T01:06:59.258Z,472.80
2023-04-16T01:07:59.967Z,453.10
2023-04-16T01:09:00.674Z,443.20
2023-04-16T01:10:01.880Z,449.10
2023-04-16T01:11:02.072Z,437.70
2023-04-16T01:12:02.836Z,446.10
2023-04-16T01:13:03.481Z,432.80
2023-04-16T01:14:25.179Z,441.00
2023-04-16T01:15:05.408Z,445.70
2023-04-16T01:16:05.617Z,431.60
2023-04-16T01:17:06.278Z,450.00
2023-04-16T01:18:07.010Z,443.80
2023-04-16T01:19:08.021Z,435.40
2023-04-16T01:20:08.372Z,408.30
2023-04-16T01:21:09.077Z,433.30
2023-04-16T01:22:09.785Z,415.80
2023-04-16T01:23:10.495Z,425.90
2023-04-16T01:24:11.190Z,418.90
2023-04-16T01:25:12.360Z,414.70
2023-04-16T01:26:12.564Z,408.30
2023-04-16T01:27:13.265Z,427.10
2023-04-16T01:28:13.975Z,414.40
2023-04-16T01:29:14.676Z,409.40
2023-04-16T01:30:15.905Z,413.90
2023-04-16T01:31:16.064Z,401.40
2023-04-16T01:32:16.736Z,415.40
2023-04-16T01:33:17.442Z,400.80
2023-04-16T01:34:18.159Z,395.90
2023-04-16T01:35:18.865Z,389.30
2023-04-16T01:36:19.576Z,411.30
2023-04-16T01:37:20.269Z,409.10
2023-04-16T01:38:41.986Z,415.50
2023-04-16T01:39:21.708Z,415.30
2023-04-16T01:40:22.871Z,416.80
2023-04-16T01:41:23.068Z,423.70
2023-04-16T01:42:23.772Z,416.80
2023-04-16T01:43:24.474Z,412.00
2023-04-16T01:44:25.177Z,388.20
2023-04-16T01:45:26.408Z,409.20
2023-04-16T01:46:26.642Z,393.00
2023-04-16T01:47:27.340Z,403.80
2023-04-16T01:48:28.012Z,393.10
2023-04-16T01:49:28.710Z,407.10
2023-04-16T01:50:29.867Z,415.70
2023-04-16T01:51:30.066Z,407.30
2023-04-16T01:52:30.789Z,408.00
2023-04-16T01:53:31.482Z,404.60
2023-04-16T01:54:32.182Z,422.20
2023-04-16T01:55:54.370Z,410.60
2023-04-16T01:56:33.587Z,398.30
2023-04-16T01:57:34.277Z,396.20
2023-04-16T01:58:34.974Z,405.70
2023-04-16T01:59:35.689Z,404.70
2023-04-16T02:00:36.450Z,403.40
2023-04-16T02:01:37.367Z,408.30
2023-04-16T02:02:38.203Z,401.80
2023-04-16T02:03:39.081Z,412.70
2023-04-16T02:04:39.777Z,398.90
2023-04-16T02:05:40.467Z,403.30
2023-04-16T02:06:41.370Z,395.20
2023-04-16T02:07:42.079Z,395.10
2023-04-16T02:08:42.783Z,404.20
2023-04-16T02:09:43.485Z,394.30
2023-04-16T02:10:44.205Z,399.10
2023-04-16T02:11:45.368Z,395.00
2023-04-16T02:12:45.599Z,403.10
2023-04-16T02:13:46.278Z,411.50
2023-04-16T02:14:46.995Z,393.60
2023-04-16T02:15:47.731Z,403.40
2023-04-16T02:16:48.999Z,410.50
2023-04-16T02:17:49.219Z,403.00
2023-04-16T02:18:49.913Z,393.10
2023-04-16T02:19:50.618Z,410.10
2023-04-16T02:20:51.326Z,409.70
2023-04-16T02:21:52.546Z,409.80
2023-04-16T02:22:52.760Z,420.80
2023-04-16T02:24:14.471Z,428.10
2023-04-16T02:24:54.165Z,408.10
2023-04-16T02:25:54.868Z,435.80
2023-04-16T02:26:55.594Z,408.00
2023-04-16T02:27:56.294Z,420.80
2023-04-16T02:28:56.995Z,422.60
2023-04-16T02:29:57.696Z,421.00
2023-04-16T02:30:58.439Z,423.70
2023-04-16T02:31:59.424Z,435.50
2023-04-16T02:32:59.698Z,423.50
2023-04-16T02:34:00.373Z,435.70
2023-04-16T02:35:01.085Z,420.60
2023-04-16T02:36:01.787Z,434.80
2023-04-16T02:37:02.861Z,415.70
2023-04-16T02:38:03.065Z,413.00
2023-04-16T02:39:32.388Z,426.20
2023-04-16T02:40:04.584Z,433.90
2023-04-16T02:41:05.282Z,431.10
2023-04-16T02:42:05.991Z,431.80
2023-04-16T02:43:06.740Z,428.60
2023-04-16T02:44:07.430Z,424.20
2023-04-16T02:45:08.141Z,412.80
2023-04-16T02:46:08.910Z,415.60
2023-04-16T02:47:09.882Z,409.60
2023-04-16T02:48:10.066Z,426.00
2023-04-16T02:49:10.933Z,403.20
2023-04-16T02:50:11.680Z,416.80
2023-04-16T02:51:12.373Z,421.40
2023-04-16T02:52:15.535Z,431.10
2023-04-16T02:53:13.826Z,430.00
2023-04-16T02:54:14.521Z,427.90
2023-04-16T02:55:15.228Z,442.30
2023-04-16T02:56:15.935Z,434.00
2023-04-16T02:57:16.645Z,437.20
2023-04-16T02:58:38.348Z,432.10
2023-04-16T02:59:18.050Z,436.20
2023-04-16T03:00:18.785Z,436.00
2023-04-16T03:01:19.577Z,426.80
2023-04-16T03:02:20.313Z,427.70
2023-04-16T03:03:21.029Z,436.40
2023-04-16T03:04:21.704Z,425.20
2023-04-16T03:05:22.399Z,420.60
2023-04-16T03:06:23.092Z,429.40
2023-04-16T03:07:23.806Z,433.20
2023-04-16T03:08:24.502Z,427.80
2023-04-16T03:09:25.208Z,422.50
2023-04-16T03:10:25.902Z,432.10
2023-04-16T03:11:26.598Z,432.80
2023-04-16T03:12:27.310Z,432.60
2023-04-16T03:13:28.012Z,433.50
2023-04-16T03:14:28.732Z,440.70
2023-04-16T03:15:29.450Z,415.80
2023-04-16T03:16:30.162Z,411.50
2023-04-16T03:17:30.976Z,415.60
2023-04-16T03:18:31.635Z,414.50
2023-04-16T03:19:32.335Z,412.50
2023-04-16T03:20:33.045Z,419.40
2023-04-16T03:21:33.747Z,417.70
2023-04-16T03:22:35.068Z,422.50
2023-04-16T03:23:35.279Z,426.60
2023-04-16T03:24:35.982Z,425.40
2023-04-16T03:26:00.368Z,412.00
2023-04-16T03:26:37.574Z,416.90
2023-04-16T03:27:38.267Z,407.60
2023-04-16T03:28:38.969Z,401.20
2023-04-16T03:29:39.671Z,399.30
2023-04-16T03:30:40.381Z,420.60
2023-04-16T03:31:41.156Z,400.50
2023-04-16T03:32:41.928Z,411.30
2023-04-16T03:33:42.580Z,419.80
2023-04-16T03:34:43.288Z,421.00
2023-04-16T03:35:43.986Z,425.80
2023-04-16T03:36:44.692Z,420.80
2023-04-16T03:37:45.872Z,419.80
2023-04-16T03:38:46.078Z,423.00
2023-04-16T03:39:46.780Z,435.30
2023-04-16T03:40:47.484Z,414.60
2023-04-16T03:41:48.185Z,413.60
2023-04-16T03:42:49.374Z,428.90
2023-04-16T03:43:49.578Z,430.70
2023-04-16T03:44:50.278Z,426.20
2023-04-16T03:45:50.998Z,420.40
2023-04-16T03:46:51.806Z,419.20
2023-04-16T03:47:53.030Z,426.10
2023-04-16T03:48:53.252Z,425.70
2023-04-16T03:49:53.960Z,421.70
2023-04-16T03:50:54.668Z,427.70
2023-04-16T03:51:55.369Z,420.80
2023-04-16T03:52:56.372Z,413.20
2023-04-16T03:53:56.575Z,433.00
2023-04-16T03:54:57.280Z,428.40
2023-04-16T03:55:57.990Z,404.60
2023-04-16T03:56:58.684Z,421.50
2023-04-16T03:57:59.878Z,417.20
2023-04-16T03:59:00.109Z,423.70
2023-04-16T04:00:00.788Z,423.90
2023-04-16T04:01:01.567Z,421.20
2023-04-16T04:02:02.289Z,410.80
2023-04-16T04:03:03.275Z,416.80
2023-04-16T04:04:03.834Z,425.90
2023-04-16T04:05:04.365Z,416.00
2023-04-16T04:06:05.086Z,426.30
2023-04-16T04:07:05.795Z,429.60
2023-04-16T04:08:06.500Z,442.10
2023-04-16T04:09:07.306Z,420.40
2023-04-16T04:10:07.982Z,428.40
2023-04-16T04:11:08.679Z,430.10
2023-04-16T04:12:09.422Z,438.30
2023-04-16T04:13:10.378Z,435.20
2023-04-16T04:14:10.585Z,442.90
2023-04-16T04:15:11.282Z,448.80
2023-04-16T04:16:12.023Z,461.70
2023-04-16T04:17:12.759Z,473.40
2023-04-16T04:18:13.878Z,466.70
2023-04-16T04:19:14.085Z,449.10
2023-04-16T04:20:14.790Z,468.40
2023-04-16T04:21:15.486Z,483.00
2023-04-16T04:22:16.192Z,477.50
2023-04-16T04:23:17.574Z,472.30
2023-04-16T04:24:17.771Z,477.20
2023-04-16T04:25:18.473Z,466.20
2023-04-16T04:26:19.187Z,470.50
2023-04-16T04:27:19.884Z,476.50
2023-04-16T04:28:20.879Z,481.30
2023-04-16T04:29:21.097Z,471.20
2023-04-16T04:30:21.789Z,478.30
2023-04-16T04:31:22.517Z,474.90
2023-04-16T04:32:23.272Z,487.60
2023-04-16T04:33:24.380Z,483.30
2023-04-16T04:34:24.584Z,478.20
2023-04-16T04:35:25.287Z,478.10
2023-04-16T04:36:25.989Z,471.90
2023-04-16T04:37:26.689Z,469.90
2023-04-16T04:38:27.877Z,490.60
2023-04-16T04:39:28.079Z,486.30
2023-04-16T04:40:28.780Z,490.40
2023-04-16T04:41:29.501Z,487.40
2023-04-16T04:42:30.200Z,510.90
2023-04-16T04:43:31.382Z,493.90
2023-04-16T04:44:31.581Z,501.70
2023-04-16T04:45:32.392Z,499.50
2023-04-16T04:46:33.076Z,471.00
2023-04-16T04:47:33.861Z,496.00
2023-04-16T04:48:34.884Z,481.60
2023-04-16T04:49:35.082Z,478.10
2023-04-16T04:50:35.779Z,491.50
2023-04-16T04:51:36.491Z,478.70
2023-04-16T04:52:37.185Z,480.20
2023-04-16T04:53:38.376Z,472.10
2023-04-16T04:54:38.589Z,470.20
2023-04-16T04:55:39.284Z,485.10
2023-04-16T04:56:39.986Z,473.40
2023-04-16T04:57:40.690Z,476.30
2023-04-16T04:58:41.890Z,463.00
2023-04-16T04:59:42.100Z,461.20
2023-04-16T05:00:42.820Z,481.20
2023-04-16T05:01:43.502Z,485.20
2023-04-16T05:02:44.429Z,486.10
2023-04-16T05:03:45.486Z,461.20
2023-04-16T05:04:45.634Z,473.90
2023-04-16T05:05:46.346Z,485.00
2023-04-16T05:07:08.052Z,470.30
2023-04-16T05:07:47.741Z,478.10
2023-04-16T05:08:48.882Z,492.90
2023-04-16T05:09:49.086Z,470.40
2023-04-16T05:10:49.787Z,476.30
2023-04-16T05:11:50.494Z,476.90
2023-04-16T05:12:51.189Z,462.60
2023-04-16T05:13:52.386Z,471.50
2023-04-16T05:14:52.617Z,464.40
2023-04-16T05:15:53.302Z,449.90
2023-04-16T05:16:54.071Z,449.40
2023-04-16T05:17:54.910Z,448.30
2023-04-16T05:18:55.883Z,450.90
2023-04-16T05:19:56.090Z,472.50
2023-04-16T05:20:56.785Z,467.90
2023-04-16T05:21:57.487Z,447.00
2023-04-16T05:22:58.196Z,456.70
2023-04-16T05:23:59.571Z,443.20
2023-04-16T05:24:59.778Z,444.20
2023-04-16T05:26:00.477Z,438.00
2023-04-16T05:27:01.180Z,446.00
2023-04-16T05:28:01.908Z,438.30
2023-04-16T05:29:23.884Z,414.00
2023-04-16T05:30:03.091Z,433.10
2023-04-16T05:31:03.842Z,426.20
2023-04-16T05:32:04.510Z,426.20
2023-04-16T05:33:05.263Z,423.00
2023-04-16T05:34:05.904Z,415.50
2023-04-16T05:35:06.886Z,407.20
2023-04-16T05:36:07.104Z,406.90
2023-04-16T05:37:07.807Z,404.10
2023-04-16T05:38:08.511Z,404.00
2023-04-16T05:39:09.532Z,427.90
2023-04-16T05:40:09.887Z,415.00
2023-04-16T05:41:10.589Z,405.80
2023-04-16T05:42:11.293Z,393.60
2023-04-16T05:43:11.996Z,404.70
2023-04-16T05:44:12.699Z,401.10
2023-04-16T05:45:13.884Z,398.00
2023-04-16T05:46:14.142Z,387.00
2023-04-16T05:47:14.822Z,378.50
2023-04-16T05:48:15.575Z,392.10
2023-04-16T05:49:16.216Z,386.80
2023-04-16T05:50:17.384Z,404.90
2023-04-16T05:51:17.592Z,382.30
2023-04-16T05:52:18.304Z,386.50
2023-04-16T05:53:19.012Z,377.60
2023-04-16T05:54:40.705Z,365.50
2023-04-16T05:55:20.894Z,363.40
2023-04-16T05:56:21.086Z,349.30
2023-04-16T05:57:21.792Z,375.00
2023-04-16T05:58:22.494Z,370.00
2023-04-16T05:59:23.206Z,371.90
2023-04-16T06:00:24.386Z,384.20
2023-04-16T06:01:24.603Z,363.10
2023-04-16T06:02:25.414Z,360.30
2023-04-16T06:03:26.296Z,368.80
2023-04-16T06:04:26.946Z,368.60
2023-04-16T06:05:27.701Z,347.10
2023-04-16T06:06:28.387Z,365.30
2023-04-16T06:07:29.086Z,325.20
2023-04-16T06:08:29.790Z,320.20
2023-04-16T06:09:30.488Z,314.30
2023-04-16T06:10:31.385Z,331.50
2023-04-16T06:11:32.654Z,312.90
2023-04-16T06:13:00.374Z,319.10
2023-04-16T06:13:33.570Z,298.00
2023-04-16T06:14:34.281Z,310.00
2023-04-16T06:15:35.392Z,318.50
2023-04-16T06:16:35.594Z,307.60
2023-04-16T06:17:36.362Z,299.70
2023-04-16T06:18:37.123Z,311.60
2023-04-16T06:19:37.794Z,306.20
2023-04-16T06:20:38.529Z,310.30
2023-04-16T06:21:39.211Z,296.10
2023-04-16T06:22:39.916Z,272.00
2023-04-16T06:23:40.633Z,280.20
2023-04-16T06:24:41.343Z,277.80
2023-04-16T06:25:42.393Z,296.30
2023-04-16T06:26:42.597Z,289.70
2023-04-16T06:27:43.295Z,296.60
2023-04-16T06:28:43.995Z,278.70
2023-04-16T06:29:44.832Z,266.20
2023-04-16T06:30:45.538Z,250.80
2023-04-16T06:32:07.253Z,249.00
2023-04-16T06:32:47.039Z,256.10
2023-04-16T06:33:47.736Z,266.20
2023-04-16T06:34:48.369Z,242.70
2023-04-16T06:35:49.390Z,243.20
2023-04-16T06:36:49.591Z,246.40
2023-04-16T06:37:50.291Z,245.60
2023-04-16T06:38:50.995Z,231.10
2023-04-16T06:39:51.705Z,247.70
2023-04-16T06:40:52.888Z,259.90
2023-04-16T06:41:53.087Z,274.20
2023-04-16T06:42:53.799Z,246.30
2023-04-16T06:43:54.506Z,238.60
2023-04-16T06:44:55.211Z,225.30
2023-04-16T06:45:56.384Z,214.20
2023-04-16T06:46:56.600Z,244.20
2023-04-16T06:47:57.338Z,210.50
2023-04-16T06:48:58.036Z,212.30
2023-04-16T06:49:58.696Z,189.90
2023-04-16T06:50:59.886Z,196.00
2023-04-16T06:52:00.152Z,191.00
2023-04-16T06:53:00.817Z,180.80
2023-04-16T06:54:01.508Z,183.60
2023-04-16T06:55:02.210Z,169.60
2023-04-16T06:56:03.390Z,176.50
2023-04-16T06:57:03.609Z,183.70
2023-04-16T06:58:04.307Z,168.40
2023-04-16T06:59:05.018Z,192.70
2023-04-16T07:00:05.724Z,165.80
2023-04-16T07:01:06.934Z,172.40
2023-04-16T07:02:07.154Z,182.00
2023-04-16T07:03:08.108Z,159.10
2023-04-16T07:04:08.952Z,149.40
2023-04-16T07:05:09.698Z,165.20
2023-04-16T07:06:10.891Z,166.30
2023-04-16T07:07:11.091Z,154.70
2023-04-16T07:08:11.792Z,167.30
2023-04-16T07:09:12.539Z,146.50
2023-04-16T07:10:13.200Z,165.80
2023-04-16T07:11:13.913Z,149.80
2023-04-16T07:12:14.612Z,141.10
2023-04-16T07:13:15.319Z,152.40
2023-04-16T07:14:16.024Z,136.30
2023-04-16T07:15:16.718Z,125.40
2023-04-16T07:16:17.914Z,124.80
2023-04-16T07:17:18.096Z,128.40
2023-04-16T07:18:20.651Z,115.30
2023-04-16T07:19:19.480Z,127.50
2023-04-16T07:20:20.105Z,131.70
2023-04-16T07:21:20.917Z,151.10
2023-04-16T07:22:21.612Z,150.40
2023-04-16T07:23:22.306Z,110.80
2023-04-16T07:24:23.008Z,134.00
2023-04-16T07:25:23.707Z,145.70
2023-04-16T07:26:24.893Z,143.40
2023-04-16T07:27:25.095Z,150.30
2023-04-16T07:28:25.837Z,127.00
2023-04-16T07:29:26.509Z,145.80
2023-04-16T07:30:27.211Z,142.70
2023-04-16T07:31:27.951Z,123.70
2023-04-16T07:32:28.670Z,120.00
2023-04-16T07:33:29.355Z,126.80
2023-04-16T07:34:30.109Z,115.40
2023-04-16T07:35:30.753Z,128.00
2023-04-16T07:36:31.910Z,114.00
2023-04-16T07:37:32.102Z,117.60
2023-04-16T07:38:32.803Z,125.40
2023-04-16T07:39:33.507Z,124.60
2023-04-16T07:40:34.207Z,133.00
2023-04-16T07:41:35.405Z,131.90
2023-04-16T07:42:35.632Z,125.20
2023-04-16T07:43:36.306Z,119.00
2023-04-16T07:44:37.003Z,125.90
2023-04-16T07:45:37.770Z,117.20
2023-04-16T07:46:46.870Z,112.90
2023-04-16T07:47:40.052Z,120.80
2023-04-16T07:48:39.695Z,99.80
2023-04-16T07:49:40.520Z,99.10
2023-04-16T07:50:41.151Z,112.70
2023-04-16T07:51:41.867Z,107.60
2023-04-16T07:52:42.572Z,102.50
2023-04-16T07:53:43.281Z,97.30
2023-04-16T07:54:43.978Z,102.90
2023-04-16T07:55:44.961Z,104.70
2023-04-16T07:56:45.897Z,100.20
2023-04-16T07:57:46.598Z,81.10
2023-04-16T07:58:47.307Z,100.70
2023-04-16T07:59:48.012Z,89.30
2023-04-16T08:00:50.787Z,86.50
2023-04-16T08:01:49.720Z,95.50
2023-04-16T08:02:50.545Z,93.00
2023-04-16T08:03:51.390Z,97.60
2023-04-16T08:04:52.181Z,100.40
2023-04-16T08:05:52.890Z,99.60
2023-04-16T08:06:53.603Z,97.60
2023-04-16T08:07:54.298Z,93.70
2023-04-16T08:08:55.001Z,96.40
2023-04-16T08:09:55.719Z,94.30
2023-04-16T08:10:56.425Z,107.10
2023-04-16T08:11:57.119Z,97.10
2023-04-16T08:12:57.824Z,88.00
2023-04-16T08:13:58.527Z,85.40
2023-04-16T08:14:59.230Z,92.40
2023-04-16T08:16:00.014Z,91.00
2023-04-16T08:17:00.681Z,99.10
2023-04-16T08:18:01.402Z,104.60
2023-04-16T08:19:02.081Z,89.40
2023-04-16T08:20:02.824Z,83.10
2023-04-16T08:21:03.467Z,91.10
2023-04-16T08:22:25.425Z,92.30
2023-04-16T08:23:05.121Z,82.30
2023-04-16T08:24:05.819Z,78.10
2023-04-16T08:25:06.534Z,89.20
2023-04-16T08:26:07.233Z,94.70
2023-04-16T08:27:17.956Z,104.80
2023-04-16T08:28:09.536Z,101.40
2023-04-16T08:29:09.596Z,93.60
2023-04-16T08:30:09.877Z,93.00
2023-04-16T08:31:10.596Z,99.00
2023-04-16T08:32:11.291Z,99.40
2023-04-16T08:33:12.067Z,92.90
2023-04-16T08:34:12.723Z,76.00
2023-04-16T08:35:13.472Z,84.10
2023-04-16T08:36:14.152Z,80.40
2023-04-16T08:37:14.854Z,79.00
2023-04-16T08:38:15.562Z,88.80
2023-04-16T08:39:16.274Z,81.70
2023-04-16T08:40:37.983Z,86.60
2023-04-16T08:41:17.675Z,87.70
2023-04-16T08:42:18.377Z,77.20
2023-04-16T08:43:19.408Z,88.10
2023-04-16T08:44:19.621Z,89.90
2023-04-16T08:45:20.326Z,91.50
2023-04-16T08:46:21.038Z,82.70
2023-04-16T08:47:21.744Z,87.60
2023-04-16T08:48:22.924Z,82.30
2023-04-16T08:49:23.119Z,101.80
2023-04-16T08:50:23.868Z,96.20
2023-04-16T08:51:24.502Z,83.90
2023-04-16T08:52:25.202Z,83.80
2023-04-16T08:53:25.934Z,79.20
2023-04-16T08:54:26.647Z,85.10
2023-04-16T08:55:27.354Z,83.80
2023-04-16T08:56:28.053Z,84.30
2023-04-16T08:57:28.769Z,80.80
2023-04-16T08:58:29.908Z,76.20
2023-04-16T08:59:30.119Z,72.80
2023-04-16T09:00:30.821Z,76.10
2023-04-16T09:01:31.563Z,80.10
2023-04-16T09:02:32.364Z,85.30
2023-04-16T09:03:36.303Z,75.10
2023-04-16T09:04:33.914Z,82.30
2023-04-16T09:05:34.712Z,70.00
2023-04-16T09:06:35.354Z,67.70
2023-04-16T09:07:57.059Z,71.20
2023-04-16T09:08:36.914Z,78.20
2023-04-16T09:09:37.618Z,70.40
2023-04-16T09:10:38.325Z,74.50
2023-04-16T09:11:39.033Z,78.60
2023-04-16T09:12:39.742Z,71.40
2023-04-16T09:13:40.904Z,69.00
2023-04-16T09:14:41.116Z,67.80
2023-04-16T09:15:41.822Z,61.40
2023-04-16T09:16:42.545Z,70.30
2023-04-16T09:17:43.292Z,61.20
2023-04-16T09:18:43.971Z,67.20
2023-04-16T09:19:44.680Z,72.10
2023-04-16T09:20:45.425Z,70.60
2023-04-16T09:21:46.057Z,69.10
2023-04-16T09:22:46.762Z,64.30
2023-04-16T09:23:47.923Z,69.30
2023-04-16T09:24:48.129Z,64.40
2023-04-16T09:25:48.832Z,75.10
2023-04-16T09:26:49.544Z,69.70
2023-04-16T09:27:50.240Z,69.20
2023-04-16T09:28:51.431Z,72.90
2023-04-16T09:29:51.619Z,65.70
2023-04-16T09:30:52.316Z,70.10
2023-04-16T09:31:53.120Z,57.50
2023-04-16T09:33:14.971Z,63.50
2023-04-16T09:33:54.914Z,64.70
2023-04-16T09:34:55.622Z,61.80
2023-04-16T09:35:56.380Z,65.20
2023-04-16T09:36:57.043Z,63.40
2023-04-16T09:37:57.806Z,63.00
2023-04-16T09:38:58.924Z,60.60
2023-04-16T09:39:59.138Z,50.50
2023-04-16T09:40:59.835Z,59.20
2023-04-16T09:42:00.544Z,61.90
2023-04-16T09:43:01.246Z,66.90
2023-04-16T09:44:02.497Z,61.70
2023-04-16T09:45:04.889Z,57.80
2023-04-16T09:46:07.378Z,65.10
2023-04-16T09:47:04.892Z,67.10
2023-04-16T09:48:04.644Z,65.60
2023-04-16T09:49:05.432Z,61.10
2023-04-16T09:50:06.124Z,62.40
2023-04-16T09:51:06.879Z,64.40
2023-04-16T09:52:07.522Z,56.80
2023-04-16T09:53:08.252Z,62.20
2023-04-16T09:54:08.963Z,58.50
2023-04-16T09:55:30.699Z,60.30
2023-04-16T09:56:10.401Z,56.40
2023-04-16T09:57:11.108Z,56.30
2023-04-16T09:58:11.806Z,60.10
2023-04-16T09:59:12.518Z,60.90
2023-04-16T10:00:13.220Z,64.80
2023-04-16T10:01:13.959Z,65.50
2023-04-16T10:02:16.570Z,54.60
2023-04-16T10:03:15.406Z,60.20
2023-04-16T10:04:16.445Z,56.00
2023-04-16T10:05:16.696Z,63.80
2023-04-16T10:06:17.446Z,56.40
2023-04-16T10:07:18.089Z,61.40
2023-04-16T10:08:18.799Z,54.50
2023-04-16T10:09:19.924Z,53.90
2023-04-16T10:10:20.128Z,57.50
2023-04-16T10:11:20.850Z,54.00
2023-04-16T10:12:21.549Z,66.60
2023-04-16T10:13:22.260Z,49.60
2023-04-16T10:14:23.421Z,53.10
2023-04-16T10:15:23.627Z,55.20
2023-04-16T10:16:24.354Z,52.40
2023-04-16T10:17:25.098Z,53.20
2023-04-16T10:18:25.750Z,56.20
2023-04-16T10:19:26.923Z,52.50
2023-04-16T10:20:27.123Z,59.40
2023-04-16T10:21:48.878Z,50.90
2023-04-16T10:22:28.535Z,48.80
2023-04-16T10:23:29.243Z,54.50
2023-04-16T10:24:29.973Z,53.70
2023-04-16T10:25:30.662Z,51.00
2023-04-16T10:26:31.367Z,46.80
2023-04-16T10:27:32.089Z,48.10
2023-04-16T10:28:32.788Z,49.00
2023-04-16T10:29:33.497Z,49.00
2023-04-16T10:30:34.299Z,43.80
2023-04-16T10:31:34.950Z,51.00
2023-04-16T10:32:35.711Z,39.70
2023-04-16T10:33:36.382Z,47.00
2023-04-16T10:34:37.097Z,47.60
2023-04-16T10:35:37.797Z,46.20
2023-04-16T10:36:38.525Z,45.70
2023-04-16T10:37:39.258Z,42.80
2023-04-16T10:38:39.902Z,54.10
2023-04-16T10:39:40.928Z,46.60
2023-04-16T10:40:41.132Z,42.20
2023-04-16T10:41:41.837Z,44.70
2023-04-16T10:42:42.559Z,42.00
2023-04-16T10:43:43.264Z,42.10
2023-04-16T10:44:45.645Z,48.80
2023-04-16T10:45:44.853Z,45.60
2023-04-16T10:46:45.560Z,46.50
2023-04-16T10:47:46.287Z,43.80
2023-04-16T10:48:50.352Z,46.50
2023-04-16T10:49:47.924Z,42.40
2023-04-16T10:50:49.920Z,39.10
2023-04-16T10:51:49.550Z,36.90
2023-04-16T10:52:50.330Z,33.50
2023-04-16T10:53:50.964Z,36.00
2023-04-16T10:54:51.933Z,32.50
2023-04-16T10:55:52.643Z,38.00
2023-04-16T10:56:53.339Z,41.70
2023-04-16T10:57:54.059Z,40.30
2023-04-16T10:58:54.746Z,38.00
2023-04-16T10:59:55.923Z,33.90
2023-04-16T11:00:56.128Z,37.30
2023-04-16T11:01:56.939Z,39.50
2023-04-16T11:02:57.752Z,38.20
2023-04-16T11:03:58.706Z,37.90
2023-04-16T11:04:59.545Z,32.10
2023-04-16T11:05:59.815Z,35.70
2023-04-16T11:07:00.517Z,36.90
2023-04-16T11:08:01.260Z,32.90
2023-04-16T11:09:01.941Z,34.80
2023-04-16T11:10:02.923Z,36.00
2023-04-16T11:11:03.125Z,33.10
2023-04-16T11:12:03.840Z,30.80
2023-04-16T11:13:04.571Z,33.70
2023-04-16T11:14:05.273Z,30.20
2023-04-16T11:15:06.430Z,32.20
2023-04-16T11:16:06.656Z,31.00
2023-04-16T11:17:07.372Z,28.40
2023-04-16T11:18:08.073Z,31.50
2023-04-16T11:19:09.008Z,31.30
2023-04-16T11:20:17.327Z,32.80
2023-04-16T11:21:11.059Z,34.90
2023-04-16T11:22:10.779Z,33.00
2023-04-16T11:23:11.515Z,32.70
2023-04-16T11:24:12.153Z,31.20
2023-04-16T11:25:12.935Z,33.40
2023-04-16T11:26:13.639Z,32.50
2023-04-16T11:27:14.344Z,31.10
2023-04-16T11:28:15.046Z,30.10
2023-04-16T11:29:15.775Z,30.20
2023-04-16T11:30:16.932Z,31.20
2023-04-16T11:31:17.200Z,29.20
2023-04-16T11:32:17.955Z,31.90
2023-04-16T11:33:18.615Z,31.60
2023-04-16T11:34:19.312Z,28.20
2023-04-16T11:35:20.435Z,32.70
2023-04-16T11:36:20.637Z,33.90
2023-04-16T11:37:21.337Z,26.90
2023-04-16T11:38:22.087Z,29.30
2023-04-16T11:39:22.738Z,28.00
2023-04-16T11:40:23.927Z,26.20
2023-04-16T11:41:24.132Z,29.00
2023-04-16T11:42:24.874Z,25.90
2023-04-16T11:43:25.539Z,31.50
2023-04-16T11:44:26.245Z,28.50
2023-04-16T11:45:26.957Z,25.20
2023-04-16T11:46:28.111Z,26.00
2023-04-16T11:47:28.313Z,27.50
2023-04-16T11:48:28.993Z,28.90
2023-04-16T11:49:29.723Z,30.30
2023-04-16T11:50:30.433Z,31.60
2023-04-16T11:51:31.148Z,28.20
2023-04-16T11:52:31.842Z,25.80
2023-04-16T11:53:32.594Z,29.60
2023-04-16T11:54:33.254Z,27.10
2023-04-16T11:55:33.965Z,26.20
2023-04-16T11:56:34.664Z,31.90
2023-04-16T11:57:35.378Z,23.00
2023-04-16T11:58:36.071Z,23.20
2023-04-16T11:59:36.777Z,22.50
2023-04-16T12:00:37.934Z,21.30
2023-04-16T12:01:38.206Z,21.00
2023-04-16T12:02:38.962Z,22.60
2023-04-16T12:03:40.172Z,23.20
2023-04-16T12:04:40.800Z,20.50
2023-04-16T12:05:41.939Z,21.60
2023-04-16T12:06:42.141Z,19.40
2023-04-16T12:07:42.839Z,19.90
2023-04-16T12:08:43.589Z,20.10
2023-04-16T12:09:44.224Z,20.90
2023-04-16T12:10:44.935Z,20.30
2023-04-16T12:11:45.638Z,18.70
2023-04-16T12:12:46.342Z,19.10
2023-04-16T12:14:08.056Z,18.60
2023-04-16T12:14:47.749Z,19.50
2023-04-16T12:15:48.504Z,18.80
2023-04-16T12:16:49.248Z,19.20
2023-04-16T12:17:49.966Z,19.50
2023-04-16T12:18:50.632Z,19.60
2023-04-16T12:19:51.332Z,18.40
2023-04-16T12:20:52.085Z,19.20
2023-04-16T12:21:52.762Z,18.60
2023-04-16T12:22:53.464Z,19.40
2023-04-16T12:23:54.210Z,17.50
2023-04-16T12:24:54.859Z,18.40
2023-04-16T12:25:55.941Z,18.70
2023-04-16T12:26:56.164Z,18.30
2023-04-16T12:27:56.847Z,19.10
2023-04-16T12:28:57.553Z,18.10
2023-04-16T12:29:58.257Z,18.90
2023-04-16T12:30:59.474Z,19.90
2023-04-16T12:31:59.655Z,18.90
2023-04-16T12:33:00.375Z,18.90
2023-04-16T12:34:01.068Z,18.20
2023-04-16T12:35:01.776Z,18.90
2023-04-16T12:36:02.947Z,20.10
2023-04-16T12:37:03.233Z,20.20
2023-04-16T12:38:25.931Z,19.70
2023-04-16T12:39:04.729Z,18.80
2023-04-16T12:40:05.355Z,18.80
2023-04-16T12:41:06.070Z,18.40
2023-04-16T12:42:06.772Z,19.40
2023-04-16T12:43:07.465Z,17.60
2023-04-16T12:44:08.167Z,18.00
2023-04-16T12:45:08.871Z,17.80
2023-04-16T12:46:09.615Z,17.70